createdAt,value
2018-12-18T00:02:16.742Z,15.60
2018-12-18T00:04:44.194Z,15.60
2018-12-18T00:07:11.657Z,15.60
2018-12-18T00:09:39.164Z,15.60
2018-12-18T00:12:06.736Z,15.60
2018-12-18T00:14:34.269Z,15.60
2018-12-18T00:17:01.733Z,15.60
2018-12-18T00:19:29.207Z,15.60
2018-12-18T00:21:56.690Z,15.60
2018-12-18T00:24:24.142Z,15.60
2018-12-18T00:26:51.593Z,15.60
2018-12-18T00:29:19.050Z,15.60
2018-12-18T00:31:46.563Z,15.60
2018-12-18T00:34:14.010Z,15.60
2018-12-18T00:36:41.514Z,15.60
2018-12-18T00:39:13.681Z,15.60
2018-12-18T00:41:41.341Z,15.60
2018-12-18T00:44:08.789Z,15.70
2018-12-18T00:46:36.327Z,15.70
2018-12-18T00:49:03.789Z,15.70
2018-12-18T00:51:31.279Z,15.70
2018-12-18T00:53:58.809Z,15.70
2018-12-18T00:56:26.299Z,15.70
2018-12-18T00:58:53.794Z,15.70
2018-12-18T01:01:21.259Z,15.60
2018-12-18T01:03:52.795Z,15.60
2018-12-18T01:06:18.605Z,15.60
2018-12-18T01:08:46.399Z,15.60
2018-12-18T01:11:14.038Z,15.70
2018-12-18T01:13:41.518Z,15.60
2018-12-18T01:16:08.971Z,15.60
2018-12-18T01:18:36.509Z,15.60
2018-12-18T01:21:03.990Z,15.60
2018-12-18T01:23:31.438Z,15.60
2018-12-18T01:25:58.945Z,15.60
2018-12-18T01:28:26.418Z,15.60
2018-12-18T01:30:53.913Z,15.60
2018-12-18T01:33:21.407Z,15.60
2018-12-18T01:35:49.182Z,15.60
2018-12-18T01:38:16.642Z,15.60
2018-12-18T01:40:44.110Z,15.60
2018-12-18T01:43:11.560Z,15.60
2018-12-18T01:45:39.135Z,15.60
2018-12-18T01:48:06.626Z,15.60
2018-12-18T01:50:34.089Z,15.60
2018-12-18T01:53:01.669Z,15.70
2018-12-18T01:55:29.119Z,15.70
2018-12-18T01:57:56.566Z,15.60
2018-12-18T02:00:24.038Z,15.60
2018-12-18T02:02:51.499Z,15.60
2018-12-18T02:05:18.995Z,15.60
2018-12-18T02:07:46.471Z,15.60
2018-12-18T02:10:13.952Z,15.60
2018-12-18T02:12:41.421Z,15.60
2018-12-18T02:15:08.943Z,15.60
2018-12-18T02:17:36.398Z,15.60
2018-12-18T02:20:04.592Z,15.60
2018-12-18T02:22:32.091Z,15.60
2018-12-18T02:24:59.537Z,15.60
2018-12-18T02:27:26.981Z,15.60
2018-12-18T02:29:54.441Z,15.60
2018-12-18T02:32:21.918Z,15.60
2018-12-18T02:34:49.365Z,15.60
2018-12-18T02:37:16.850Z,15.60
2018-12-18T02:39:44.334Z,15.60
2018-12-18T02:42:11.819Z,15.60
2018-12-18T02:44:39.315Z,15.60
2018-12-18T02:47:06.777Z,15.60
2018-12-18T02:49:34.237Z,15.60
2018-12-18T02:52:01.696Z,15.60
2018-12-18T02:54:29.134Z,15.60
2018-12-18T02:56:56.634Z,15.60
2018-12-18T02:59:24.102Z,15.60
2018-12-18T03:01:51.571Z,15.70
2018-12-18T03:04:25.073Z,15.60
2018-12-18T03:06:52.529Z,15.60
2018-12-18T03:09:19.980Z,15.60
2018-12-18T03:11:47.530Z,15.60
2018-12-18T03:14:14.994Z,15.60
2018-12-18T03:16:42.455Z,15.60
2018-12-18T03:19:09.981Z,15.60
2018-12-18T03:21:37.440Z,15.60
2018-12-18T03:24:05.026Z,15.60
2018-12-18T03:26:32.487Z,15.60
2018-12-18T03:29:00.049Z,15.60
2018-12-18T03:31:29.223Z,15.60
2018-12-18T03:33:56.841Z,15.60
2018-12-18T03:36:24.346Z,15.60
2018-12-18T03:38:51.836Z,15.60
2018-12-18T03:41:19.294Z,15.60
2018-12-18T03:43:46.797Z,15.60
2018-12-18T03:46:14.277Z,15.60
2018-12-18T03:48:41.723Z,15.60
2018-12-18T03:51:09.204Z,15.60
2018-12-18T03:53:36.670Z,15.60
2018-12-18T03:56:04.199Z,15.60
2018-12-18T03:58:31.698Z,15.60
2018-12-18T04:00:59.154Z,15.60
2018-12-18T04:03:26.617Z,15.60
2018-12-18T04:05:54.067Z,15.60
2018-12-18T04:08:21.536Z,15.60
2018-12-18T04:10:49.087Z,15.60
2018-12-18T04:13:16.545Z,15.60
2018-12-18T04:15:44.138Z,15.60
2018-12-18T04:18:11.588Z,15.60
2018-12-18T04:20:39.057Z,15.60
2018-12-18T04:23:06.611Z,15.60
2018-12-18T04:25:34.931Z,15.60
2018-12-18T04:28:02.418Z,15.60
2018-12-18T04:30:29.949Z,15.60
2018-12-18T04:32:57.401Z,15.60
2018-12-18T04:35:24.950Z,15.60
2018-12-18T04:37:52.408Z,15.60
2018-12-18T04:40:19.889Z,15.60
2018-12-18T04:42:47.370Z,15.60
2018-12-18T04:45:15.759Z,15.60
2018-12-18T04:47:43.450Z,15.60
2018-12-18T04:50:10.881Z,15.60
2018-12-18T04:52:38.344Z,15.60
2018-12-18T04:55:05.889Z,15.60
2018-12-18T04:57:33.390Z,15.60
2018-12-18T05:00:00.910Z,15.60
2018-12-18T05:02:28.355Z,15.60
2018-12-18T05:04:55.829Z,15.60
2018-12-18T05:07:23.293Z,15.60
2018-12-18T05:09:50.770Z,15.60
2018-12-18T05:12:18.233Z,15.60
2018-12-18T05:14:45.712Z,15.60
2018-12-18T05:17:13.210Z,15.70
2018-12-18T05:19:40.680Z,15.70
2018-12-18T05:22:08.233Z,15.70
2018-12-18T05:24:35.702Z,15.70
2018-12-18T05:27:03.149Z,15.80
2018-12-18T05:29:30.661Z,15.80
2018-12-18T05:31:58.121Z,15.80
2018-12-18T05:34:25.628Z,15.80
2018-12-18T05:36:53.106Z,15.90
2018-12-18T05:39:20.577Z,15.90
2018-12-18T05:41:48.037Z,15.90
2018-12-18T05:44:15.510Z,15.90
2018-12-18T05:46:42.982Z,15.90
2018-12-18T05:49:10.638Z,15.90
2018-12-18T05:51:38.105Z,15.90
2018-12-18T05:54:05.545Z,16.00
2018-12-18T05:56:33.045Z,16.00
2018-12-18T05:59:00.520Z,16.00
2018-12-18T06:01:27.970Z,16.00
2018-12-18T06:03:55.405Z,16.00
2018-12-18T06:06:22.923Z,16.00
2018-12-18T06:08:50.386Z,16.00
2018-12-18T06:11:17.862Z,16.00
2018-12-18T06:13:45.346Z,16.00
2018-12-18T06:16:12.830Z,16.00
2018-12-18T06:18:40.282Z,16.00
2018-12-18T06:21:07.734Z,16.10
2018-12-18T06:23:35.176Z,16.10
2018-12-18T06:26:02.693Z,16.10
2018-12-18T06:28:30.185Z,16.10
2018-12-18T06:30:57.673Z,16.10
2018-12-18T06:33:25.181Z,16.10
2018-12-18T06:35:52.642Z,16.10
2018-12-18T06:38:20.094Z,16.10
2018-12-18T06:40:47.583Z,16.10
2018-12-18T06:43:15.036Z,16.10
2018-12-18T06:45:42.554Z,16.10
2018-12-18T06:48:11.050Z,16.20
2018-12-18T06:50:38.576Z,16.20
2018-12-18T06:53:06.054Z,16.20
2018-12-18T06:55:33.509Z,16.20
2018-12-18T06:58:00.982Z,16.20
2018-12-18T07:00:28.490Z,16.20
2018-12-18T07:02:55.976Z,16.20
2018-12-18T07:05:23.450Z,16.20
2018-12-18T07:07:57.231Z,16.20
2018-12-18T07:10:21.227Z,16.30
2018-12-18T07:12:48.689Z,16.30
2018-12-18T07:15:16.186Z,16.30
2018-12-18T07:17:43.677Z,16.30
2018-12-18T07:20:11.166Z,16.30
2018-12-18T07:22:38.653Z,16.30
2018-12-18T07:25:06.111Z,16.30
2018-12-18T07:27:33.618Z,16.30
2018-12-18T07:30:01.113Z,16.30
2018-12-18T07:32:28.602Z,16.30
2018-12-18T07:34:56.246Z,16.30
2018-12-18T07:37:23.730Z,16.30
2018-12-18T07:39:51.248Z,16.40
2018-12-18T07:42:18.697Z,16.30
2018-12-18T07:44:46.201Z,16.40
2018-12-18T07:47:13.706Z,16.40
2018-12-18T07:49:41.186Z,16.40
2018-12-18T07:52:08.637Z,16.40
2018-12-18T07:54:36.143Z,16.40
2018-12-18T07:57:03.601Z,16.40
2018-12-18T07:59:31.045Z,16.40
2018-12-18T08:01:58.510Z,16.40
2018-12-18T08:04:25.977Z,16.40
2018-12-18T08:06:53.437Z,16.40
2018-12-18T08:09:20.933Z,16.40
2018-12-18T08:11:48.437Z,16.40
2018-12-18T08:14:15.922Z,16.40
2018-12-18T08:16:43.373Z,16.40
2018-12-18T08:19:10.842Z,16.40
2018-12-18T08:21:38.426Z,16.40
2018-12-18T08:24:06.881Z,16.40
2018-12-18T08:26:34.580Z,16.40
2018-12-18T08:29:02.046Z,16.40
2018-12-18T08:31:29.566Z,16.40
2018-12-18T08:33:57.058Z,16.40
2018-12-18T08:36:24.542Z,16.40
2018-12-18T08:38:52.106Z,16.50
2018-12-18T08:41:19.569Z,16.50
2018-12-18T08:43:47.026Z,16.50
2018-12-18T08:46:14.492Z,16.50
2018-12-18T08:48:41.954Z,16.50
2018-12-18T08:51:09.437Z,16.50
2018-12-18T08:53:36.886Z,16.50
2018-12-18T08:56:04.425Z,16.50
2018-12-18T08:58:31.906Z,16.50
2018-12-18T09:00:59.411Z,16.50
2018-12-18T09:03:26.865Z,16.50
2018-12-18T09:05:54.394Z,16.50
2018-12-18T09:08:21.909Z,16.50
2018-12-18T09:10:49.375Z,16.50
2018-12-18T09:13:16.841Z,16.50
2018-12-18T09:15:49.586Z,16.50
2018-12-18T09:18:17.066Z,16.50
2018-12-18T09:20:44.530Z,16.50
2018-12-18T09:23:12.036Z,16.50
2018-12-18T09:25:39.533Z,16.50
2018-12-18T09:28:07.022Z,16.50
2018-12-18T09:30:35.596Z,16.50
2018-12-18T09:33:03.998Z,16.50
2018-12-18T09:35:31.446Z,16.50
2018-12-18T09:38:04.446Z,16.50
2018-12-18T09:40:36.230Z,16.50
2018-12-18T09:43:09.408Z,16.50
2018-12-18T09:45:36.906Z,16.50
2018-12-18T09:48:04.370Z,16.50
2018-12-18T09:50:31.846Z,16.50
2018-12-18T09:52:59.348Z,16.50
2018-12-18T09:55:26.826Z,16.50
2018-12-18T09:57:57.541Z,16.50
2018-12-18T10:00:25.010Z,16.50
2018-12-18T10:02:53.044Z,16.50
2018-12-18T10:05:20.497Z,16.50
2018-12-18T10:07:48.007Z,16.50
2018-12-18T10:10:15.445Z,16.50
2018-12-18T10:12:49.148Z,16.50
2018-12-18T10:15:16.673Z,16.50
2018-12-18T10:17:44.226Z,16.50
2018-12-18T10:20:11.679Z,16.50
2018-12-18T10:22:39.150Z,16.60
2018-12-18T10:25:06.602Z,16.60
2018-12-18T10:27:34.217Z,16.60
2018-12-18T10:30:01.696Z,16.60
2018-12-18T10:32:29.179Z,16.60
2018-12-18T10:34:56.637Z,16.60
2018-12-18T10:37:24.118Z,16.50
2018-12-18T10:39:51.618Z,16.50
2018-12-18T10:42:19.094Z,16.50
2018-12-18T10:44:46.590Z,16.60
2018-12-18T10:47:14.061Z,16.60
2018-12-18T10:49:41.580Z,16.50
2018-12-18T10:52:09.105Z,16.60
2018-12-18T10:54:36.590Z,16.60
2018-12-18T10:57:04.066Z,16.60
2018-12-18T10:59:31.559Z,16.60
2018-12-18T11:02:00.986Z,16.50
2018-12-18T11:04:28.438Z,16.60
2018-12-18T11:06:55.891Z,16.60
2018-12-18T11:09:23.385Z,16.50
2018-12-18T11:11:50.813Z,16.50
2018-12-18T11:14:18.275Z,16.50
2018-12-18T11:16:45.812Z,16.50
2018-12-18T11:19:13.282Z,16.50
2018-12-18T11:21:40.776Z,16.50
2018-12-18T11:24:08.262Z,16.50
2018-12-18T11:26:35.760Z,16.60
2018-12-18T11:29:03.231Z,16.50
2018-12-18T11:31:30.725Z,16.50
2018-12-18T11:33:58.259Z,16.50
2018-12-18T11:36:25.753Z,16.60
2018-12-18T11:38:53.254Z,16.60
2018-12-18T11:41:20.710Z,16.60
2018-12-18T11:43:48.167Z,16.60
2018-12-18T11:46:15.657Z,16.50
2018-12-18T11:48:43.154Z,16.50
2018-12-18T11:51:10.614Z,16.50
2018-12-18T11:53:38.101Z,16.50
2018-12-18T11:56:05.572Z,16.50
2018-12-18T11:58:33.042Z,16.50
2018-12-18T12:01:00.504Z,16.60
2018-12-18T12:03:28.027Z,16.60
2018-12-18T12:05:55.477Z,16.60
2018-12-18T12:08:22.947Z,16.60
2018-12-18T12:10:50.406Z,16.60
2018-12-18T12:13:17.989Z,16.60
2018-12-18T12:15:45.924Z,16.60
2018-12-18T12:21:05.826Z,16.50
2018-12-18T12:23:33.419Z,16.50
2018-12-18T12:26:05.311Z,16.50
2018-12-18T12:28:33.105Z,16.50
2018-12-18T12:31:00.691Z,16.50
2018-12-18T12:33:28.249Z,16.50
2018-12-18T12:36:03.416Z,16.50
2018-12-18T12:38:30.929Z,16.50
2018-12-18T12:40:58.682Z,16.50
2018-12-18T12:43:26.158Z,16.50
2018-12-18T12:45:53.665Z,16.50
2018-12-18T12:48:23.273Z,16.50
2018-12-18T12:50:50.811Z,16.50
2018-12-18T12:53:18.392Z,16.50
2018-12-18T12:55:45.849Z,16.50
2018-12-18T12:58:13.450Z,16.50
2018-12-18T13:00:41.055Z,16.50
2018-12-18T13:03:08.536Z,16.50
2018-12-18T13:05:35.974Z,16.50
2018-12-18T13:08:03.450Z,16.50
2018-12-18T13:10:30.906Z,16.50
2018-12-18T13:12:58.389Z,16.50
2018-12-18T13:15:25.863Z,16.50
2018-12-18T13:17:53.309Z,16.50
2018-12-18T13:20:20.809Z,16.50
2018-12-18T13:22:48.252Z,16.50
2018-12-18T13:25:15.720Z,16.50
2018-12-18T13:27:43.199Z,16.60
2018-12-18T13:30:10.696Z,16.50
2018-12-18T13:32:38.165Z,16.50
2018-12-18T13:35:05.760Z,16.50
2018-12-18T13:37:33.314Z,16.50
2018-12-18T13:40:00.801Z,16.50
2018-12-18T13:42:28.294Z,16.50
2018-12-18T13:44:55.823Z,16.50
2018-12-18T13:47:27.144Z,16.50
2018-12-18T13:49:52.900Z,16.50
2018-12-18T13:52:20.365Z,16.40
2018-12-18T13:54:47.864Z,16.40
2018-12-18T13:57:15.312Z,16.40
2018-12-18T13:59:42.808Z,16.40
2018-12-18T14:02:10.262Z,16.40
2018-12-18T14:04:37.758Z,16.40
2018-12-18T14:07:05.229Z,16.40
2018-12-18T14:09:32.723Z,16.40
2018-12-18T14:12:00.261Z,16.40
2018-12-18T14:14:27.737Z,16.40
2018-12-18T14:16:55.219Z,16.40
2018-12-18T14:19:22.672Z,16.40
2018-12-18T14:21:50.142Z,16.40
2018-12-18T14:24:17.643Z,16.40
2018-12-18T14:26:45.186Z,16.40
2018-12-18T14:29:12.718Z,16.40
2018-12-18T14:31:40.242Z,16.30
2018-12-18T14:34:07.727Z,16.40
2018-12-18T14:36:35.183Z,16.40
2018-12-18T14:39:02.869Z,16.30
2018-12-18T14:41:30.329Z,16.30
2018-12-18T14:43:57.797Z,16.30
2018-12-18T14:46:25.254Z,16.30
2018-12-18T14:48:52.710Z,16.30
2018-12-18T14:51:20.197Z,16.30
2018-12-18T14:53:47.661Z,16.30
2018-12-18T14:56:15.125Z,16.30
2018-12-18T14:58:42.639Z,16.30
2018-12-18T15:01:10.073Z,16.30
2018-12-18T15:03:37.526Z,16.20
2018-12-18T15:06:05.550Z,16.30
2018-12-18T15:08:33.105Z,16.30
2018-12-18T15:11:00.572Z,16.30
2018-12-18T15:13:29.829Z,16.30
2018-12-18T15:15:57.381Z,16.30
2018-12-18T15:18:24.855Z,16.30
2018-12-18T15:20:52.330Z,16.30
2018-12-18T15:23:19.774Z,16.30
2018-12-18T15:25:47.286Z,16.30
2018-12-18T15:28:14.746Z,16.30
2018-12-18T15:30:42.257Z,16.30
2018-12-18T15:33:09.729Z,16.30
2018-12-18T15:35:37.411Z,16.30
2018-12-18T15:38:04.873Z,16.30
2018-12-18T15:40:32.521Z,16.30
2018-12-18T15:42:59.997Z,16.30
2018-12-18T15:45:27.421Z,16.30
2018-12-18T15:47:54.892Z,16.30
2018-12-18T15:50:22.411Z,16.30
2018-12-18T15:52:49.864Z,16.30
2018-12-18T15:55:17.313Z,16.30
2018-12-18T15:57:44.762Z,16.20
2018-12-18T16:00:12.498Z,16.30
2018-12-18T16:02:40.024Z,16.20
2018-12-18T16:05:07.497Z,16.30
2018-12-18T16:07:34.962Z,16.30
2018-12-18T16:10:02.444Z,16.30
2018-12-18T16:12:29.921Z,16.30
2018-12-18T16:14:57.470Z,16.20
2018-12-18T16:17:24.987Z,16.30
2018-12-18T16:19:52.437Z,16.20
2018-12-18T16:22:19.887Z,16.20
2018-12-18T16:24:47.362Z,16.20
2018-12-18T16:27:14.841Z,16.20
2018-12-18T16:29:43.039Z,16.20
2018-12-18T16:32:10.500Z,16.20
2018-12-18T16:34:37.989Z,16.20
2018-12-18T16:37:05.471Z,16.20
2018-12-18T16:39:32.974Z,16.20
2018-12-18T16:42:00.473Z,16.20
2018-12-18T16:44:27.931Z,16.20
2018-12-18T16:46:55.440Z,16.20
2018-12-18T16:49:22.919Z,16.30
2018-12-18T16:51:50.443Z,16.30
2018-12-18T16:54:18.303Z,16.30
2018-12-18T16:59:27.317Z,16.30
2018-12-18T17:01:55.493Z,16.30
2018-12-18T17:04:23.243Z,16.30
2018-12-18T17:06:50.822Z,16.40
2018-12-18T17:09:19.518Z,16.40
2018-12-18T17:11:47.154Z,16.50
2018-12-18T17:14:14.855Z,16.50
2018-12-18T17:16:42.443Z,16.50
2018-12-18T17:19:10.492Z,16.50
2018-12-18T17:21:38.453Z,16.50
2018-12-18T17:24:07.257Z,16.50
2018-12-18T17:26:34.839Z,16.50
2018-12-18T17:29:02.461Z,16.60
2018-12-18T17:31:30.097Z,16.50
2018-12-18T17:33:58.482Z,16.50
2018-12-18T17:36:27.008Z,16.60
2018-12-18T17:38:54.806Z,16.60
2018-12-18T17:41:22.453Z,16.60
2018-12-18T17:43:50.309Z,16.60
2018-12-18T17:46:18.046Z,16.60
2018-12-18T17:48:46.709Z,16.60
2018-12-18T17:51:15.687Z,16.60
2018-12-18T17:53:43.312Z,16.60
2018-12-18T17:56:10.949Z,16.60
2018-12-18T17:58:38.554Z,16.60
2018-12-18T18:01:09.573Z,16.60
2018-12-18T18:03:38.818Z,16.60
2018-12-18T18:06:06.588Z,16.60
2018-12-18T18:08:34.417Z,16.60
2018-12-18T18:11:01.940Z,16.70
2018-12-18T18:13:29.472Z,16.60
2018-12-18T18:15:56.999Z,16.70
2018-12-18T18:18:25.482Z,16.70
2018-12-18T18:20:54.072Z,16.60
2018-12-18T18:23:21.668Z,16.60
2018-12-18T18:25:49.555Z,16.60
2018-12-18T18:28:18.132Z,16.60
2018-12-18T18:30:46.533Z,16.60
2018-12-18T18:33:14.838Z,16.60
2018-12-18T18:35:43.233Z,16.60
2018-12-18T18:38:10.762Z,16.60
2018-12-18T18:40:39.328Z,16.60
2018-12-18T18:43:06.912Z,16.60
2018-12-18T18:45:38.161Z,16.60
2018-12-18T18:48:05.704Z,16.60
2018-12-18T18:50:34.294Z,16.60
2018-12-18T18:53:01.880Z,16.60
2018-12-18T18:55:29.395Z,16.60
2018-12-18T18:57:56.899Z,16.60
2018-12-18T19:00:24.426Z,16.60
2018-12-18T19:02:51.981Z,16.70
2018-12-18T19:05:19.498Z,16.70
2018-12-18T19:07:47.079Z,16.70
2018-12-18T19:10:14.567Z,16.70
2018-12-18T19:12:42.237Z,16.60
2018-12-18T19:15:09.937Z,16.70
2018-12-18T19:17:37.466Z,16.70
2018-12-18T19:20:06.233Z,16.70
2018-12-18T19:22:34.875Z,16.70
2018-12-18T19:25:02.372Z,16.70
2018-12-18T19:27:30.044Z,16.80
2018-12-18T19:29:57.775Z,16.70
2018-12-18T19:32:25.375Z,16.70
2018-12-18T19:34:53.043Z,16.70
2018-12-18T19:37:21.292Z,16.80
2018-12-18T19:39:49.755Z,16.80
2018-12-18T19:42:17.590Z,16.70
2018-12-18T19:44:45.450Z,16.70
2018-12-18T19:47:13.073Z,16.70
2018-12-18T19:49:41.247Z,16.70
2018-12-18T19:52:09.792Z,16.60
2018-12-18T19:54:37.357Z,16.60
2018-12-18T19:57:04.883Z,16.60
2018-12-18T19:59:32.407Z,16.60
2018-12-18T20:01:59.902Z,16.60
2018-12-18T20:04:28.976Z,16.60
2018-12-18T20:06:56.480Z,16.60
2018-12-18T20:09:24.073Z,16.50
2018-12-18T20:11:51.634Z,16.50
2018-12-18T20:14:19.902Z,16.50
2018-12-18T20:16:47.461Z,16.60
2018-12-18T20:19:16.284Z,16.60
2018-12-18T20:21:45.500Z,16.60
2018-12-18T20:24:13.094Z,16.60
2018-12-18T20:26:40.612Z,16.60
2018-12-18T20:29:08.159Z,16.70
2018-12-18T20:31:35.850Z,16.60
2018-12-18T20:34:03.390Z,16.60
2018-12-18T20:36:30.879Z,16.60
2018-12-18T20:38:58.387Z,16.50
2018-12-18T20:41:25.853Z,16.50
2018-12-18T20:43:53.370Z,16.50
2018-12-18T20:46:20.836Z,16.50
2018-12-18T20:48:48.349Z,16.50
2018-12-18T20:51:15.908Z,16.50
2018-12-18T20:53:43.405Z,16.40
2018-12-18T20:56:10.855Z,16.40
2018-12-18T20:58:38.482Z,16.40
2018-12-18T21:01:05.964Z,16.40
2018-12-18T21:03:33.437Z,16.40
2018-12-18T21:06:00.953Z,16.40
2018-12-18T21:08:28.525Z,16.40
2018-12-18T21:10:56.060Z,16.40
2018-12-18T21:13:31.033Z,16.40
2018-12-18T21:16:00.612Z,16.40
2018-12-18T21:18:28.171Z,16.40
2018-12-18T21:20:55.882Z,16.40
2018-12-18T21:23:23.407Z,16.40
2018-12-18T21:25:53.045Z,16.40
2018-12-18T21:28:20.710Z,16.40
2018-12-18T21:30:48.268Z,16.30
2018-12-18T21:33:15.803Z,16.30
2018-12-18T21:35:43.312Z,16.40
2018-12-18T21:38:10.910Z,16.40
2018-12-18T21:40:39.075Z,16.40
2018-12-18T21:43:06.674Z,16.40
2018-12-18T21:45:35.314Z,16.30
2018-12-18T21:48:02.857Z,16.40
2018-12-18T21:50:30.374Z,16.30
2018-12-18T21:52:57.913Z,16.30
2018-12-18T21:55:25.453Z,16.30
2018-12-18T21:57:52.975Z,16.30
2018-12-18T22:00:20.584Z,16.30
2018-12-18T22:02:48.113Z,16.30
2018-12-18T22:05:15.670Z,16.40
2018-12-18T22:07:43.248Z,16.40
2018-12-18T22:10:10.778Z,16.40
2018-12-18T22:12:38.306Z,16.30
2018-12-18T22:15:05.837Z,16.40
2018-12-18T22:17:33.374Z,16.30
2018-12-18T22:20:00.913Z,16.30
2018-12-18T22:22:28.469Z,16.30
2018-12-18T22:24:56.011Z,16.40
2018-12-18T22:27:23.576Z,16.40
2018-12-18T22:29:51.046Z,16.40
2018-12-18T22:32:18.581Z,16.40
2018-12-18T22:34:46.034Z,16.40
2018-12-18T22:37:14.456Z,16.40
2018-12-18T22:39:42.178Z,16.40
2018-12-18T22:42:09.646Z,16.40
2018-12-18T22:44:37.114Z,16.40
2018-12-18T22:47:04.557Z,16.40
2018-12-18T22:49:32.025Z,16.40
2018-12-18T22:51:59.517Z,16.30
2018-12-18T22:54:26.983Z,16.40
2018-12-18T22:56:54.448Z,16.40
2018-12-18T22:59:21.906Z,16.40
2018-12-18T23:01:49.385Z,16.30
2018-12-18T23:04:16.855Z,16.30
2018-12-18T23:06:44.305Z,16.30
2018-12-18T23:09:16.042Z,16.30
2018-12-18T23:11:43.569Z,16.30
2018-12-18T23:14:11.057Z,16.40
2018-12-18T23:16:38.526Z,16.40
2018-12-18T23:19:06.000Z,16.40
2018-12-18T23:21:33.544Z,16.40
2018-12-18T23:24:01.001Z,16.40
2018-12-18T23:26:28.465Z,16.30
2018-12-18T23:28:55.930Z,16.30
2018-12-18T23:31:23.427Z,16.40
2018-12-18T23:33:51.014Z,16.40
2018-12-18T23:36:19.512Z,16.40
2018-12-18T23:38:46.990Z,16.30
2018-12-18T23:41:14.535Z,16.30
2018-12-18T23:43:41.999Z,16.30
2018-12-18T23:46:09.478Z,16.30
2018-12-18T23:48:39.820Z,16.30
2018-12-18T23:51:06.581Z,16.30
2018-12-18T23:53:34.116Z,16.30
2018-12-18T23:56:01.614Z,16.40
2018-12-18T23:58:29.133Z,16.30
